sensor_id;sensor_type;location;lat;lon;timestamp;pressure;altitude;pressure_sealevel;temperature;humidity
20039;BME280;21737;42.868;25.320;2024-03-02T00:01:16;96518.53;;;9.05;65.22
20039;BME280;21737;42.868;25.320;2024-03-02T00:03:42;96517.75;;;9.04;66.28
20039;BME280;21737;42.868;25.320;2024-03-02T00:06:10;96520.13;;;9.06;64.46
20039;BME280;21737;42.868;25.320;2024-03-02T00:08:36;96513.09;;;9.14;64.62
20039;BME280;21737;42.868;25.320;2024-03-02T00:11:02;96517.81;;;9.11;65.83
20039;BME280;21737;42.868;25.320;2024-03-02T00:13:30;96518.78;;;9.10;64.89
20039;BME280;21737;42.868;25.320;2024-03-02T00:15:58;96516.69;;;8.99;65.14
20039;BME280;21737;42.868;25.320;2024-03-02T00:18:31;96507.63;;;9.03;64.91
20039;BME280;21737;42.868;25.320;2024-03-02T00:20:59;96506.22;;;9.00;64.74
20039;BME280;21737;42.868;25.320;2024-03-02T00:23:30;96507.28;;;8.91;65.81
20039;BME280;21737;42.868;25.320;2024-03-02T00:25:58;96507.06;;;8.86;65.54
20039;BME280;21737;42.868;25.320;2024-03-02T00:28:36;96511.28;;;8.94;66.25
20039;BME280;21737;42.868;25.320;2024-03-02T00:31:12;96507.25;;;8.84;66.13
20039;BME280;21737;42.868;25.320;2024-03-02T00:36:09;96508.41;;;8.82;66.99
20039;BME280;21737;42.868;25.320;2024-03-02T00:41:08;96505.56;;;8.77;66.76
20039;BME280;21737;42.868;25.320;2024-03-02T00:46:12;96492.34;;;8.80;66.70
20039;BME280;21737;42.868;25.320;2024-03-02T00:48:40;96501.59;;;8.74;66.23
20039;BME280;21737;42.868;25.320;2024-03-02T00:51:10;96492.00;;;8.68;66.62
20039;BME280;21737;42.868;25.320;2024-03-02T00:53:36;96480.34;;;8.66;66.13
20039;BME280;21737;42.868;25.320;2024-03-02T00:56:03;96484.00;;;8.78;66.62
20039;BME280;21737;42.868;25.320;2024-03-02T00:58:30;96499.34;;;8.86;66.54
20039;BME280;21737;42.868;25.320;2024-03-02T01:00:55;96492.72;;;8.77;66.73
20039;BME280;21737;42.868;25.320;2024-03-02T01:03:22;96495.78;;;8.66;67.97
20039;BME280;21737;42.868;25.320;2024-03-02T01:05:48;96490.84;;;8.71;66.56
20039;BME280;21737;42.868;25.320;2024-03-02T01:08:14;96483.94;;;8.71;67.10
20039;BME280;21737;42.868;25.320;2024-03-02T01:10:40;96493.06;;;8.74;66.17
20039;BME280;21737;42.868;25.320;2024-03-02T01:13:06;96480.91;;;8.82;65.96
20039;BME280;21737;42.868;25.320;2024-03-02T01:15:33;96481.50;;;8.63;66.36
20039;BME280;21737;42.868;25.320;2024-03-02T01:18:00;96488.72;;;8.74;66.11
20039;BME280;21737;42.868;25.320;2024-03-02T01:20:26;96475.59;;;8.69;66.75
20039;BME280;21737;42.868;25.320;2024-03-02T01:22:53;96472.78;;;8.64;67.07
20039;BME280;21737;42.868;25.320;2024-03-02T01:25:18;96486.00;;;8.61;68.26
20039;BME280;21737;42.868;25.320;2024-03-02T01:27:45;96484.84;;;8.64;67.10
20039;BME280;21737;42.868;25.320;2024-03-02T01:30:11;96478.56;;;8.51;67.11
20039;BME280;21737;42.868;25.320;2024-03-02T01:32:38;96470.13;;;8.58;66.48
20039;BME280;21737;42.868;25.320;2024-03-02T01:35:05;96485.75;;;8.56;66.78
20039;BME280;21737;42.868;25.320;2024-03-02T01:37:33;96483.19;;;8.56;66.81
20039;BME280;21737;42.868;25.320;2024-03-02T01:39:59;96475.09;;;8.59;67.55
20039;BME280;21737;42.868;25.320;2024-03-02T01:42:25;96474.22;;;8.52;66.56
20039;BME280;21737;42.868;25.320;2024-03-02T01:44:51;96465.09;;;8.49;67.00
20039;BME280;21737;42.868;25.320;2024-03-02T01:47:18;96466.00;;;8.42;67.73
20039;BME280;21737;42.868;25.320;2024-03-02T01:49:44;96473.00;;;8.48;67.63
20039;BME280;21737;42.868;25.320;2024-03-02T01:52:10;96473.59;;;8.50;67.54
20039;BME280;21737;42.868;25.320;2024-03-02T01:54:36;96475.56;;;8.48;67.73
20039;BME280;21737;42.868;25.320;2024-03-02T01:57:03;96473.00;;;8.48;67.45
20039;BME280;21737;42.868;25.320;2024-03-02T01:59:29;96471.34;;;8.40;67.10
20039;BME280;21737;42.868;25.320;2024-03-02T02:01:55;96464.03;;;8.44;66.72
20039;BME280;21737;42.868;25.320;2024-03-02T02:04:22;96465.41;;;8.40;67.35
20039;BME280;21737;42.868;25.320;2024-03-02T02:06:54;96470.91;;;8.37;67.40
20039;BME280;21737;42.868;25.320;2024-03-02T02:09:20;96467.53;;;8.36;67.51
20039;BME280;21737;42.868;25.320;2024-03-02T02:11:46;96460.31;;;8.32;67.42
20039;BME280;21737;42.868;25.320;2024-03-02T02:14:11;96471.25;;;8.34;67.83
20039;BME280;21737;42.868;25.320;2024-03-02T02:16:37;96459.63;;;8.38;67.45
20039;BME280;21737;42.868;25.320;2024-03-02T02:19:03;96454.66;;;8.36;67.49
20039;BME280;21737;42.868;25.320;2024-03-02T02:21:29;96459.63;;;8.38;67.15
20039;BME280;21737;42.868;25.320;2024-03-02T02:23:55;96456.88;;;8.39;67.11
20039;BME280;21737;42.868;25.320;2024-03-02T02:26:21;96458.03;;;8.37;66.94
20039;BME280;21737;42.868;25.320;2024-03-02T02:28:46;96459.19;;;8.34;67.98
20039;BME280;21737;42.868;25.320;2024-03-02T02:31:13;96457.06;;;8.38;67.84
20039;BME280;21737;42.868;25.320;2024-03-02T02:33:42;96466.91;;;8.34;68.11
20039;BME280;21737;42.868;25.320;2024-03-02T02:36:08;96460.50;;;8.30;68.29
20039;BME280;21737;42.868;25.320;2024-03-02T02:38:39;96463.53;;;8.34;68.04
20039;BME280;21737;42.868;25.320;2024-03-02T02:41:06;96463.06;;;8.30;67.69
20039;BME280;21737;42.868;25.320;2024-03-02T02:43:34;96472.22;;;8.33;68.12
20039;BME280;21737;42.868;25.320;2024-03-02T02:46:00;96459.06;;;8.28;68.06
20039;BME280;21737;42.868;25.320;2024-03-02T02:48:26;96467.50;;;8.22;67.88
20039;BME280;21737;42.868;25.320;2024-03-02T02:50:52;96471.22;;;8.19;68.23
20039;BME280;21737;42.868;25.320;2024-03-02T02:53:18;96469.63;;;8.18;67.77
20039;BME280;21737;42.868;25.320;2024-03-02T02:55:44;96458.63;;;8.24;68.18
20039;BME280;21737;42.868;25.320;2024-03-02T02:58:11;96466.69;;;8.21;69.14
20039;BME280;21737;42.868;25.320;2024-03-02T03:00:37;96470.44;;;8.18;68.98
20039;BME280;21737;42.868;25.320;2024-03-02T03:03:03;96464.13;;;8.21;68.69
20039;BME280;21737;42.868;25.320;2024-03-02T03:05:29;96458.13;;;8.14;68.60
20039;BME280;21737;42.868;25.320;2024-03-02T03:07:55;96463.09;;;8.15;68.78
20039;BME280;21737;42.868;25.320;2024-03-02T03:10:23;96464.25;;;8.13;68.88
20039;BME280;21737;42.868;25.320;2024-03-02T03:12:51;96462.38;;;8.07;68.19
20039;BME280;21737;42.868;25.320;2024-03-02T03:15:18;96457.78;;;8.02;68.18
20039;BME280;21737;42.868;25.320;2024-03-02T03:17:44;96458.84;;;8.08;68.52
20039;BME280;21737;42.868;25.320;2024-03-02T03:20:12;96457.88;;;8.09;68.16
20039;BME280;21737;42.868;25.320;2024-03-02T03:22:39;96471.69;;;8.08;69.24
20039;BME280;21737;42.868;25.320;2024-03-02T03:25:06;96467.88;;;8.04;69.08
20039;BME280;21737;42.868;25.320;2024-03-02T03:27:33;96464.69;;;8.02;68.69
20039;BME280;21737;42.868;25.320;2024-03-02T03:29:59;96474.78;;;8.03;68.65
20039;BME280;21737;42.868;25.320;2024-03-02T03:32:25;96477.53;;;8.02;68.52
20039;BME280;21737;42.868;25.320;2024-03-02T03:34:51;96487.91;;;8.08;69.07
20039;BME280;21737;42.868;25.320;2024-03-02T03:37:17;96489.25;;;8.04;69.83
20039;BME280;21737;42.868;25.320;2024-03-02T03:39:42;96474.06;;;7.95;69.82
20039;BME280;21737;42.868;25.320;2024-03-02T03:42:08;96483.19;;;7.97;70.51
20039;BME280;21737;42.868;25.320;2024-03-02T03:44:34;96485.72;;;7.91;70.44
20039;BME280;21737;42.868;25.320;2024-03-02T03:47:00;96485.69;;;8.05;70.41
20039;BME280;21737;42.868;25.320;2024-03-02T03:49:29;96488.63;;;7.88;70.77
20039;BME280;21737;42.868;25.320;2024-03-02T03:51:55;96487.31;;;7.92;70.31
20039;BME280;21737;42.868;25.320;2024-03-02T03:54:21;96482.06;;;7.85;70.10
20039;BME280;21737;42.868;25.320;2024-03-02T03:56:47;96479.28;;;7.72;70.30
20039;BME280;21737;42.868;25.320;2024-03-02T03:59:13;96481.63;;;7.81;69.85
20039;BME280;21737;42.868;25.320;2024-03-02T04:01:39;96485.78;;;7.82;70.05
20039;BME280;21737;42.868;25.320;2024-03-02T04:04:06;96485.72;;;7.91;69.52
20039;BME280;21737;42.868;25.320;2024-03-02T04:06:32;96476.13;;;7.84;70.51
20039;BME280;21737;42.868;25.320;2024-03-02T04:08:58;96480.00;;;7.95;69.75
20039;BME280;21737;42.868;25.320;2024-03-02T04:11:24;96475.94;;;7.86;69.66
20039;BME280;21737;42.868;25.320;2024-03-02T04:13:51;96480.13;;;7.87;70.65
20039;BME280;21737;42.868;25.320;2024-03-02T04:16:16;96468.13;;;7.79;69.63
20039;BME280;21737;42.868;25.320;2024-03-02T04:18:42;96466.28;;;7.88;70.02
20039;BME280;21737;42.868;25.320;2024-03-02T04:21:08;96483.56;;;7.79;69.88
20039;BME280;21737;42.868;25.320;2024-03-02T04:23:34;96459.28;;;7.82;69.51
20039;BME280;21737;42.868;25.320;2024-03-02T04:26:00;96475.59;;;7.89;68.74
20039;BME280;21737;42.868;25.320;2024-03-02T04:28:26;96482.94;;;7.92;69.64
20039;BME280;21737;42.868;25.320;2024-03-02T04:30:53;96475.22;;;7.92;69.37
20039;BME280;21737;42.868;25.320;2024-03-02T04:33:19;96481.88;;;7.87;69.32
20039;BME280;21737;42.868;25.320;2024-03-02T04:35:45;96474.69;;;7.82;69.34
20039;BME280;21737;42.868;25.320;2024-03-02T04:38:12;96481.78;;;7.80;69.73
20039;BME280;21737;42.868;25.320;2024-03-02T04:40:38;96476.56;;;7.88;68.37
20039;BME280;21737;42.868;25.320;2024-03-02T04:43:04;96472.13;;;7.82;69.03
20039;BME280;21737;42.868;25.320;2024-03-02T04:45:30;96485.31;;;7.79;68.88
20039;BME280;21737;42.868;25.320;2024-03-02T04:47:55;96484.97;;;7.82;69.63
20039;BME280;21737;42.868;25.320;2024-03-02T04:50:21;96484.47;;;7.87;69.54
20039;BME280;21737;42.868;25.320;2024-03-02T04:52:47;96483.03;;;7.84;69.13
20039;BME280;21737;42.868;25.320;2024-03-02T04:55:13;96496.78;;;7.91;69.32
20039;BME280;21737;42.868;25.320;2024-03-02T04:57:43;96494.56;;;7.88;69.08
20039;BME280;21737;42.868;25.320;2024-03-02T05:00:10;96484.47;;;7.87;69.94
20039;BME280;21737;42.868;25.320;2024-03-02T05:02:36;96490.03;;;7.90;69.80
20039;BME280;21737;42.868;25.320;2024-03-02T05:05:04;96498.19;;;7.94;69.32
20039;BME280;21737;42.868;25.320;2024-03-02T05:07:30;96480.56;;;7.91;70.00
20039;BME280;21737;42.868;25.320;2024-03-02T05:09:56;96488.16;;;7.99;68.94
20039;BME280;21737;42.868;25.320;2024-03-02T05:12:22;96492.84;;;7.95;69.23
20039;BME280;21737;42.868;25.320;2024-03-02T05:15:06;96492.16;;;7.87;69.55
20039;BME280;21737;42.868;25.320;2024-03-02T05:17:33;96489.25;;;7.90;69.45
20039;BME280;21737;42.868;25.320;2024-03-02T05:19:59;96483.94;;;7.91;69.63
20039;BME280;21737;42.868;25.320;2024-03-02T05:22:25;96482.94;;;7.92;68.61
20039;BME280;21737;42.868;25.320;2024-03-02T05:24:50;96481.53;;;7.90;69.79
20039;BME280;21737;42.868;25.320;2024-03-02T05:27:16;96480.81;;;7.96;68.66
20039;BME280;21737;42.868;25.320;2024-03-02T05:29:46;96494.19;;;8.06;68.53
20039;BME280;21737;42.868;25.320;2024-03-02T05:32:12;96491.38;;;8.01;69.17
20039;BME280;21737;42.868;25.320;2024-03-02T05:34:38;96491.63;;;8.06;69.47
20039;BME280;21737;42.868;25.320;2024-03-02T05:37:04;96491.72;;;8.12;69.49
20039;BME280;21737;42.868;25.320;2024-03-02T05:39:30;96495.19;;;8.05;69.00
20039;BME280;21737;42.868;25.320;2024-03-02T05:41:56;96484.28;;;8.03;68.87
20039;BME280;21737;42.868;25.320;2024-03-02T05:44:21;96493.31;;;8.13;68.50
20039;BME280;21737;42.868;25.320;2024-03-02T05:46:49;96498.00;;;8.25;67.72
20039;BME280;21737;42.868;25.320;2024-03-02T05:49:14;96494.81;;;8.23;67.36
20039;BME280;21737;42.868;25.320;2024-03-02T05:51:40;96493.75;;;8.17;68.04
20039;BME280;21737;42.868;25.320;2024-03-02T05:54:07;96503.66;;;8.20;67.85
20039;BME280;21737;42.868;25.320;2024-03-02T05:56:33;96509.63;;;8.20;68.06
20039;BME280;21737;42.868;25.320;2024-03-02T05:58:59;96507.22;;;8.19;68.02
20039;BME280;21737;42.868;25.320;2024-03-02T06:01:48;96501.47;;;8.32;66.55
20039;BME280;21737;42.868;25.320;2024-03-02T06:04:16;96513.69;;;8.30;67.39
20039;BME280;21737;42.868;25.320;2024-03-02T06:06:42;96512.56;;;8.32;68.45
20039;BME280;21737;42.868;25.320;2024-03-02T06:09:08;96513.53;;;8.31;69.12
20039;BME280;21737;42.868;25.320;2024-03-02T06:11:35;96504.16;;;8.38;69.21
20039;BME280;21737;42.868;25.320;2024-03-02T06:14:02;96509.19;;;8.32;69.95
20039;BME280;21737;42.868;25.320;2024-03-02T06:16:27;96512.81;;;8.52;68.45
20039;BME280;21737;42.868;25.320;2024-03-02T06:18:54;96513.25;;;8.56;69.18
20039;BME280;21737;42.868;25.320;2024-03-02T06:21:20;96513.53;;;8.61;68.22
20039;BME280;21737;42.868;25.320;2024-03-02T06:23:46;96514.50;;;8.60;68.09
20039;BME280;21737;42.868;25.320;2024-03-02T06:26:12;96517.72;;;8.32;70.44
20039;BME280;21737;42.868;25.320;2024-03-02T06:28:38;96518.22;;;8.28;72.35
20039;BME280;21737;42.868;25.320;2024-03-02T06:31:04;96518.75;;;8.08;73.78
20039;BME280;21737;42.868;25.320;2024-03-02T06:33:30;96510.31;;;8.00;74.47
20039;BME280;21737;42.868;25.320;2024-03-02T06:35:56;96516.72;;;7.89;75.11
20039;BME280;21737;42.868;25.320;2024-03-02T06:38:22;96515.00;;;7.81;75.00
20039;BME280;21737;42.868;25.320;2024-03-02T06:40:47;96510.22;;;7.78;75.75
20039;BME280;21737;42.868;25.320;2024-03-02T06:43:15;96509.66;;;7.68;77.24
20039;BME280;21737;42.868;25.320;2024-03-02T06:45:40;96521.47;;;7.77;76.77
20039;BME280;21737;42.868;25.320;2024-03-02T06:48:06;96519.81;;;7.84;76.73
20039;BME280;21737;42.868;25.320;2024-03-02T06:50:32;96518.22;;;7.83;76.81
20039;BME280;21737;42.868;25.320;2024-03-02T06:52:58;96529.47;;;7.82;76.88
20039;BME280;21737;42.868;25.320;2024-03-02T06:55:24;96523.34;;;7.83;76.72
20039;BME280;21737;42.868;25.320;2024-03-02T06:57:51;96527.41;;;7.93;76.33
20039;BME280;21737;42.868;25.320;2024-03-02T07:00:18;96511.81;;;7.79;77.12
20039;BME280;21737;42.868;25.320;2024-03-02T07:02:46;96510.69;;;7.82;76.76
20039;BME280;21737;42.868;25.320;2024-03-02T07:05:12;96507.13;;;7.83;77.06
20039;BME280;21737;42.868;25.320;2024-03-02T07:07:38;96525.63;;;7.64;77.61
20039;BME280;21737;42.868;25.320;2024-03-02T07:10:06;96521.53;;;7.69;77.89
20039;BME280;21737;42.868;25.320;2024-03-02T07:12:33;96517.13;;;7.63;78.62
20039;BME280;21737;42.868;25.320;2024-03-02T07:14:58;96522.44;;;7.62;78.75
20039;BME280;21737;42.868;25.320;2024-03-02T07:17:32;96528.53;;;7.61;78.84
20039;BME280;21737;42.868;25.320;2024-03-02T07:19:59;96541.28;;;7.69;78.53
20039;BME280;21737;42.868;25.320;2024-03-02T07:22:25;96534.31;;;7.63;78.84
20039;BME280;21737;42.868;25.320;2024-03-02T07:24:51;96541.22;;;7.77;78.04
20039;BME280;21737;42.868;25.320;2024-03-02T07:27:17;96544.00;;;7.53;79.70
20039;BME280;21737;42.868;25.320;2024-03-02T07:29:43;96537.66;;;7.63;79.40
20039;BME280;21737;42.868;25.320;2024-03-02T07:32:10;96549.63;;;7.71;79.01
20039;BME280;21737;42.868;25.320;2024-03-02T07:34:36;96556.53;;;7.70;79.50
20039;BME280;21737;42.868;25.320;2024-03-02T07:37:03;96567.28;;;7.51;79.22
20039;BME280;21737;42.868;25.320;2024-03-02T07:39:30;96558.75;;;7.73;78.32
20039;BME280;21737;42.868;25.320;2024-03-02T07:41:56;96554.00;;;7.85;78.17
20039;BME280;21737;42.868;25.320;2024-03-02T07:44:21;96550.38;;;7.94;78.38
20039;BME280;21737;42.868;25.320;2024-03-02T07:46:48;96552.97;;;8.09;77.64
20039;BME280;21737;42.868;25.320;2024-03-02T07:49:18;96553.84;;;8.01;78.36
20039;BME280;21737;42.868;25.320;2024-03-02T07:51:44;96543.72;;;7.85;79.40
20039;BME280;21737;42.868;25.320;2024-03-02T07:54:10;96549.06;;;7.98;78.52
20039;BME280;21737;42.868;25.320;2024-03-02T07:56:36;96547.56;;;8.04;78.23
20039;BME280;21737;42.868;25.320;2024-03-02T07:59:02;96543.13;;;7.98;78.46
20039;BME280;21737;42.868;25.320;2024-03-02T08:01:32;96547.97;;;7.93;78.82
20039;BME280;21737;42.868;25.320;2024-03-02T08:04:01;96541.09;;;8.23;77.51
20039;BME280;21737;42.868;25.320;2024-03-02T08:06:29;96555.91;;;8.20;77.10
20039;BME280;21737;42.868;25.320;2024-03-02T08:09:00;96558.91;;;8.09;77.78
20039;BME280;21737;42.868;25.320;2024-03-02T08:11:26;96556.94;;;7.97;78.36
20039;BME280;21737;42.868;25.320;2024-03-02T08:13:56;96558.63;;;8.04;77.95
20039;BME280;21737;42.868;25.320;2024-03-02T08:16:25;96560.03;;;7.92;78.01
20039;BME280;21737;42.868;25.320;2024-03-02T08:18:52;96565.91;;;8.01;78.07
20039;BME280;21737;42.868;25.320;2024-03-02T08:21:20;96560.69;;;8.24;77.07
20039;BME280;21737;42.868;25.320;2024-03-02T08:23:48;96563.94;;;8.40;76.40
20039;BME280;21737;42.868;25.320;2024-03-02T08:26:14;96562.41;;;8.46;75.47
20039;BME280;21737;42.868;25.320;2024-03-02T08:28:40;96556.69;;;8.80;74.59
20039;BME280;21737;42.868;25.320;2024-03-02T08:31:08;96556.16;;;8.70;74.54
20039;BME280;21737;42.868;25.320;2024-03-02T08:33:35;96556.50;;;8.81;75.02
20039;BME280;21737;42.868;25.320;2024-03-02T08:36:03;96546.66;;;8.70;74.37
20039;BME280;21737;42.868;25.320;2024-03-02T08:38:28;96547.13;;;8.59;75.86
20039;BME280;21737;42.868;25.320;2024-03-02T08:40:55;96566.75;;;8.60;75.31
20039;BME280;21737;42.868;25.320;2024-03-02T08:43:21;96569.66;;;8.57;75.69
20039;BME280;21737;42.868;25.320;2024-03-02T08:45:48;96569.22;;;8.53;76.19
20039;BME280;21737;42.868;25.320;2024-03-02T08:48:15;96560.91;;;8.37;77.17
20039;BME280;21737;42.868;25.320;2024-03-02T08:50:41;96545.81;;;8.48;76.27
20039;BME280;21737;42.868;25.320;2024-03-02T08:53:07;96553.50;;;8.78;74.54
20039;BME280;21737;42.868;25.320;2024-03-02T08:55:33;96546.56;;;8.78;74.74
20039;BME280;21737;42.868;25.320;2024-03-02T08:57:59;96546.78;;;8.62;75.25
20039;BME280;21737;42.868;25.320;2024-03-02T09:00:25;96558.56;;;8.71;75.39
20039;BME280;21737;42.868;25.320;2024-03-02T09:02:51;96564.19;;;8.96;73.93
20039;BME280;21737;42.868;25.320;2024-03-02T09:05:18;96571.66;;;9.27;72.93
20039;BME280;21737;42.868;25.320;2024-03-02T09:07:44;96568.03;;;8.85;73.09
20039;BME280;21737;42.868;25.320;2024-03-02T09:10:10;96564.22;;;9.17;72.44
20039;BME280;21737;42.868;25.320;2024-03-02T09:12:37;96565.59;;;8.99;73.78
20039;BME280;21737;42.868;25.320;2024-03-02T09:15:04;96571.22;;;8.88;73.38
20039;BME280;21737;42.868;25.320;2024-03-02T09:17:30;96565.41;;;9.15;73.08
20039;BME280;21737;42.868;25.320;2024-03-02T09:19:56;96566.94;;;9.31;71.56
20039;BME280;21737;42.868;25.320;2024-03-02T09:22:22;96570.41;;;9.23;71.65
20039;BME280;21737;42.868;25.320;2024-03-02T09:24:50;96561.16;;;9.50;71.90
20039;BME280;21737;42.868;25.320;2024-03-02T09:27:16;96566.94;;;9.52;71.52
20039;BME280;21737;42.868;25.320;2024-03-02T09:29:42;96582.03;;;9.55;71.57
20039;BME280;21737;42.868;25.320;2024-03-02T09:32:11;96572.44;;;9.49;72.74
20039;BME280;21737;42.868;25.320;2024-03-02T09:34:37;96555.94;;;9.65;71.99
20039;BME280;21737;42.868;25.320;2024-03-02T09:37:03;96556.38;;;9.47;71.60
20039;BME280;21737;42.868;25.320;2024-03-02T09:39:30;96552.94;;;9.61;71.00
20039;BME280;21737;42.868;25.320;2024-03-02T09:41:57;96541.00;;;9.32;72.41
20039;BME280;21737;42.868;25.320;2024-03-02T09:44:25;96550.38;;;9.61;71.37
20039;BME280;21737;42.868;25.320;2024-03-02T09:46:52;96560.88;;;9.66;71.62
20039;BME280;21737;42.868;25.320;2024-03-02T09:49:18;96562.81;;;9.58;70.98
20039;BME280;21737;42.868;25.320;2024-03-02T09:51:49;96564.59;;;9.36;72.06
20039;BME280;21737;42.868;25.320;2024-03-02T09:54:18;96550.56;;;9.60;71.39
20039;BME280;21737;42.868;25.320;2024-03-02T09:56:44;96540.16;;;10.02;69.52
20039;BME280;21737;42.868;25.320;2024-03-02T09:59:11;96542.22;;;9.85;71.02
20039;BME280;21737;42.868;25.320;2024-03-02T10:01:37;96536.81;;;10.08;70.01
20039;BME280;21737;42.868;25.320;2024-03-02T10:04:05;96529.16;;;9.87;69.59
20039;BME280;21737;42.868;25.320;2024-03-02T10:06:31;96539.06;;;9.90;69.02
20039;BME280;21737;42.868;25.320;2024-03-02T10:08:57;96551.44;;;10.01;70.10
20039;BME280;21737;42.868;25.320;2024-03-02T10:11:27;96549.81;;;10.21;69.38
20039;BME280;21737;42.868;25.320;2024-03-02T10:14:15;96561.00;;;9.79;69.60
20039;BME280;21737;42.868;25.320;2024-03-02T10:16:44;96536.34;;;9.98;69.01
20039;BME280;21737;42.868;25.320;2024-03-02T10:19:22;96529.34;;;9.92;69.19
20039;BME280;21737;42.868;25.320;2024-03-02T10:21:52;96526.69;;;9.79;70.49
20039;BME280;21737;42.868;25.320;2024-03-02T10:24:19;96526.41;;;9.67;71.26
20039;BME280;21737;42.868;25.320;2024-03-02T10:26:46;96515.16;;;10.03;69.54
20039;BME280;21737;42.868;25.320;2024-03-02T10:29:12;96525.25;;;9.70;70.93
20039;BME280;21737;42.868;25.320;2024-03-02T10:31:39;96512.03;;;9.51;72.71
20039;BME280;21737;42.868;25.320;2024-03-02T10:34:06;96517.09;;;9.66;70.63
20039;BME280;21737;42.868;25.320;2024-03-02T10:36:36;96522.66;;;9.98;70.62
20039;BME280;21737;42.868;25.320;2024-03-02T10:39:07;96533.09;;;10.17;68.45
20039;BME280;21737;42.868;25.320;2024-03-02T10:41:38;96545.53;;;10.35;67.06
20039;BME280;21737;42.868;25.320;2024-03-02T10:44:08;96549.41;;;10.52;68.77
20039;BME280;21737;42.868;25.320;2024-03-02T10:46:35;96543.22;;;10.47;68.12
20039;BME280;21737;42.868;25.320;2024-03-02T10:49:02;96543.94;;;10.34;67.56
20039;BME280;21737;42.868;25.320;2024-03-02T10:51:32;96545.88;;;10.26;68.23
20039;BME280;21737;42.868;25.320;2024-03-02T10:54:00;96543.06;;;10.55;66.92
20039;BME280;21737;42.868;25.320;2024-03-02T10:56:32;96534.25;;;10.43;68.66
20039;BME280;21737;42.868;25.320;2024-03-02T10:59:05;96554.78;;;10.57;67.60
20039;BME280;21737;42.868;25.320;2024-03-02T11:01:32;96551.69;;;10.41;67.83
20039;BME280;21737;42.868;25.320;2024-03-02T11:04:08;96546.06;;;10.65;68.18
20039;BME280;21737;42.868;25.320;2024-03-02T11:06:36;96542.34;;;10.74;68.04
20039;BME280;21737;42.868;25.320;2024-03-02T11:09:07;96545.59;;;10.48;68.85
20039;BME280;21737;42.868;25.320;2024-03-02T11:11:41;96552.06;;;10.72;68.21
20039;BME280;21737;42.868;25.320;2024-03-02T11:14:16;96548.53;;;10.80;68.24
20039;BME280;21737;42.868;25.320;2024-03-02T11:16:43;96557.78;;;10.68;66.78
20039;BME280;21737;42.868;25.320;2024-03-02T11:19:13;96550.91;;;10.34;69.33
20039;BME280;21737;42.868;25.320;2024-03-02T11:21:40;96540.69;;;10.60;68.14
20039;BME280;21737;42.868;25.320;2024-03-02T11:26:50;96532.34;;;10.65;68.14
20039;BME280;21737;42.868;25.320;2024-03-02T11:32:20;96543.84;;;11.16;66.83
20039;BME280;21737;42.868;25.320;2024-03-02T11:34:48;96543.91;;;10.69;67.95
20039;BME280;21737;42.868;25.320;2024-03-02T11:37:18;96547.78;;;10.51;68.57
20039;BME280;21737;42.868;25.320;2024-03-02T11:39:49;96537.75;;;10.63;67.45
20039;BME280;21737;42.868;25.320;2024-03-02T11:42:15;96536.63;;;10.85;66.45
20039;BME280;21737;42.868;25.320;2024-03-02T11:44:44;96538.31;;;10.65;68.62
20039;BME280;21737;42.868;25.320;2024-03-02T11:47:12;96547.50;;;10.33;68.75
20039;BME280;21737;42.868;25.320;2024-03-02T11:52:17;96536.53;;;10.59;67.94
20039;BME280;21737;42.868;25.320;2024-03-02T11:54:46;96546.16;;;10.37;70.13
20039;BME280;21737;42.868;25.320;2024-03-02T11:57:16;96545.09;;;10.25;68.39
20039;BME280;21737;42.868;25.320;2024-03-02T11:59:43;96551.56;;;10.14;70.87
20039;BME280;21737;42.868;25.320;2024-03-02T12:02:19;96540.19;;;10.37;68.20
20039;BME280;21737;42.868;25.320;2024-03-02T12:04:46;96546.00;;;10.17;70.41
20039;BME280;21737;42.868;25.320;2024-03-02T12:07:21;96536.97;;;10.00;70.88
20039;BME280;21737;42.868;25.320;2024-03-02T12:10:09;96546.22;;;9.88;71.30
20039;BME280;21737;42.868;25.320;2024-03-02T12:12:34;96553.53;;;9.84;71.51
20039;BME280;21737;42.868;25.320;2024-03-02T12:15:01;96554.19;;;10.21;69.24
20039;BME280;21737;42.868;25.320;2024-03-02T12:17:29;96550.16;;;10.12;69.38
20039;BME280;21737;42.868;25.320;2024-03-02T12:19:54;96564.75;;;10.05;71.04
20039;BME280;21737;42.868;25.320;2024-03-02T12:22:21;96578.16;;;9.94;70.67
20039;BME280;21737;42.868;25.320;2024-03-02T12:24:47;96567.56;;;9.82;70.63
20039;BME280;21737;42.868;25.320;2024-03-02T12:27:14;96571.22;;;9.94;70.18
20039;BME280;21737;42.868;25.320;2024-03-02T12:29:41;96566.78;;;10.09;70.31
20039;BME280;21737;42.868;25.320;2024-03-02T12:32:08;96572.16;;;9.59;71.77
20039;BME280;21737;42.868;25.320;2024-03-02T12:34:34;96566.13;;;9.30;72.88
20039;BME280;21737;42.868;25.320;2024-03-02T12:37:06;96561.09;;;9.43;72.42
20039;BME280;21737;42.868;25.320;2024-03-02T12:39:33;96568.63;;;9.66;71.63
20039;BME280;21737;42.868;25.320;2024-03-02T12:42:02;96569.59;;;9.86;71.61
20039;BME280;21737;42.868;25.320;2024-03-02T12:44:28;96577.13;;;9.39;72.63
20039;BME280;21737;42.868;25.320;2024-03-02T12:46:54;96573.16;;;9.43;73.27
20039;BME280;21737;42.868;25.320;2024-03-02T12:49:22;96576.44;;;9.51;72.22
20039;BME280;21737;42.868;25.320;2024-03-02T12:51:48;96574.16;;;9.63;72.40
20039;BME280;21737;42.868;25.320;2024-03-02T12:54:18;96576.41;;;9.73;71.69
20039;BME280;21737;42.868;25.320;2024-03-02T12:56:44;96580.16;;;9.28;73.68
20039;BME280;21737;42.868;25.320;2024-03-02T12:59:18;96587.72;;;9.72;71.87
20039;BME280;21737;42.868;25.320;2024-03-02T13:01:53;96593.13;;;9.34;73.16
20039;BME280;21737;42.868;25.320;2024-03-02T13:04:28;96597.13;;;9.58;71.82
20039;BME280;21737;42.868;25.320;2024-03-02T13:06:55;96597.59;;;9.68;70.79
20039;BME280;21737;42.868;25.320;2024-03-02T13:09:24;96594.59;;;9.86;69.75
20039;BME280;21737;42.868;25.320;2024-03-02T13:11:51;96587.06;;;9.63;70.52
20039;BME280;21737;42.868;25.320;2024-03-02T13:14:17;96579.81;;;9.31;72.21
20039;BME280;21737;42.868;25.320;2024-03-02T13:16:44;96573.06;;;9.30;71.75